createdAt,value
2023-07-05T00:01:23.649Z,15.90
2023-07-05T00:03:51.761Z,16.00
2023-07-05T00:06:19.840Z,16.00
2023-07-05T00:08:49.058Z,16.10
2023-07-05T00:11:18.609Z,16.10
2023-07-05T00:13:46.626Z,16.10
2023-07-05T00:16:14.791Z,16.10
2023-07-05T00:18:44.847Z,16.00
2023-07-05T00:21:12.288Z,16.00
2023-07-05T00:23:41.255Z,16.00
2023-07-05T00:26:09.320Z,15.90
2023-07-05T00:28:39.389Z,15.90
2023-07-05T00:31:10.106Z,15.80
2023-07-05T00:33:40.140Z,15.70
2023-07-05T00:36:08.421Z,15.60
2023-07-05T00:38:38.510Z,15.60
2023-07-05T00:41:06.627Z,15.50
2023-07-05T00:43:33.774Z,15.50
2023-07-05T00:46:22.870Z,15.50
2023-07-05T00:49:05.298Z,15.40
2023-07-05T00:51:57.171Z,15.30
2023-07-05T00:54:33.472Z,15.20
2023-07-05T00:57:26.728Z,15.10
2023-07-05T01:00:11.470Z,15.00
2023-07-05T01:02:43.177Z,15.00
2023-07-05T01:05:13.328Z,14.90
2023-07-05T01:07:42.445Z,14.90
2023-07-05T01:10:21.613Z,14.80
2023-07-05T01:13:08.130Z,14.70
2023-07-05T01:15:43.971Z,14.70
2023-07-05T01:18:45.228Z,14.80
2023-07-05T01:21:34.171Z,14.70
2023-07-05T01:24:11.981Z,14.70
2023-07-05T01:27:24.723Z,14.70
2023-07-05T01:30:17.479Z,14.70
2023-07-05T01:32:56.781Z,14.60
2023-07-05T01:35:32.592Z,14.60
2023-07-05T01:38:07.129Z,14.60
2023-07-05T01:40:34.008Z,14.60
2023-07-05T01:43:07.045Z,14.50
2023-07-05T01:45:44.324Z,14.50
2023-07-05T01:48:35.695Z,14.50
2023-07-05T01:51:18.235Z,14.40
2023-07-05T01:54:18.036Z,14.40
2023-07-05T01:57:19.677Z,14.40
2023-07-05T02:00:05.888Z,14.40
2023-07-05T02:02:39.320Z,14.40
2023-07-05T02:05:11.273Z,14.40
2023-07-05T02:07:40.961Z,14.40
2023-07-05T02:10:10.230Z,14.40
2023-07-05T02:12:37.225Z,14.40
2023-07-05T02:15:05.699Z,14.40
2023-07-05T02:17:32.768Z,14.40
2023-07-05T02:20:01.934Z,14.40
2023-07-05T02:22:29.007Z,14.40
2023-07-05T02:24:58.085Z,14.40
2023-07-05T02:27:25.038Z,14.30
2023-07-05T02:29:55.675Z,14.40
2023-07-05T02:32:23.154Z,14.50
2023-07-05T02:34:50.119Z,14.50
2023-07-05T02:37:20.465Z,14.60
2023-07-05T02:39:52.621Z,14.70
2023-07-05T02:42:22.728Z,14.70
2023-07-05T02:44:50.709Z,14.70
2023-07-05T02:47:21.280Z,14.80
2023-07-05T02:49:51.464Z,14.70
2023-07-05T02:52:20.437Z,14.70
2023-07-05T02:54:47.489Z,14.70
2023-07-05T02:57:17.636Z,14.60
2023-07-05T02:59:45.672Z,14.60
2023-07-05T03:02:16.113Z,14.50
2023-07-05T03:04:44.025Z,14.50
2023-07-05T03:07:14.144Z,14.50
2023-07-05T03:09:49.777Z,14.50
2023-07-05T03:12:21.448Z,14.40
2023-07-05T03:14:50.295Z,14.50
2023-07-05T03:17:17.365Z,14.50
2023-07-05T03:19:51.639Z,14.50
2023-07-05T03:22:18.583Z,14.50
2023-07-05T03:24:50.584Z,14.50
2023-07-05T03:27:17.609Z,14.50
2023-07-05T03:29:49.018Z,14.50
2023-07-05T03:32:19.083Z,14.50
2023-07-05T03:34:46.132Z,14.50
2023-07-05T03:37:13.225Z,14.50
2023-07-05T03:39:40.271Z,14.50
2023-07-05T03:42:07.717Z,14.50
2023-07-05T03:44:37.799Z,14.50
2023-07-05T03:47:10.749Z,14.50
2023-07-05T03:49:40.850Z,14.50
2023-07-05T03:52:10.981Z,14.50
2023-07-05T03:54:41.048Z,14.50
2023-07-05T03:57:10.390Z,14.50
2023-07-05T03:59:38.420Z,14.50
2023-07-05T04:02:06.800Z,14.60
2023-07-05T04:04:34.109Z,14.60
2023-07-05T04:07:01.081Z,14.60
2023-07-05T04:09:46.830Z,14.60
2023-07-05T04:12:15.857Z,14.50
2023-07-05T04:14:45.966Z,14.40
2023-07-05T04:17:13.987Z,14.30
2023-07-05T04:19:40.975Z,14.30
2023-07-05T04:22:07.912Z,14.30
2023-07-05T04:24:37.955Z,14.30
2023-07-05T04:27:07.095Z,14.10
2023-07-05T04:29:35.576Z,14.10
2023-07-05T04:32:02.624Z,14.10
2023-07-05T04:34:29.621Z,14.20
2023-07-05T04:36:59.967Z,14.20
2023-07-05T04:39:28.035Z,14.30
2023-07-05T04:41:56.892Z,14.30
2023-07-05T04:44:26.889Z,14.40
2023-07-05T04:46:57.333Z,14.40
2023-07-05T04:49:25.287Z,14.40
2023-07-05T04:51:52.242Z,14.40
2023-07-05T04:54:19.241Z,14.40
2023-07-05T04:56:56.627Z,14.50
2023-07-05T04:59:30.793Z,14.50
2023-07-05T05:02:00.877Z,14.50
2023-07-05T05:04:34.074Z,14.50
2023-07-05T05:07:02.098Z,14.50
2023-07-05T05:09:32.959Z,14.50
2023-07-05T05:12:01.963Z,14.50
2023-07-05T05:14:32.051Z,14.50
2023-07-05T05:17:02.147Z,14.50
2023-07-05T05:19:32.258Z,14.60
2023-07-05T05:21:59.265Z,14.60
2023-07-05T05:24:29.322Z,14.60
2023-07-05T05:26:59.368Z,14.60
2023-07-05T05:29:27.356Z,14.50
2023-07-05T05:31:54.420Z,14.50
2023-07-05T05:34:21.463Z,14.50
2023-07-05T05:36:50.405Z,14.50
2023-07-05T05:39:17.401Z,14.60
2023-07-05T05:41:45.480Z,14.60
2023-07-05T05:44:12.460Z,14.70
2023-07-05T05:46:41.489Z,14.70
2023-07-05T05:49:08.677Z,14.70
2023-07-05T05:51:37.068Z,14.70
2023-07-05T05:54:06.840Z,14.80
2023-07-05T05:56:36.974Z,14.80
2023-07-05T05:59:09.939Z,14.90
2023-07-05T06:01:38.010Z,14.90
2023-07-05T06:04:07.252Z,15.00
2023-07-05T06:06:34.345Z,15.10
2023-07-05T06:09:04.081Z,15.20
2023-07-05T06:11:34.488Z,15.20
2023-07-05T06:14:03.646Z,15.20
2023-07-05T06:16:30.762Z,15.20
2023-07-05T06:19:03.817Z,15.10
2023-07-05T06:21:33.920Z,15.10
2023-07-05T06:24:04.143Z,15.00
2023-07-05T06:26:31.571Z,15.00
2023-07-05T06:29:00.698Z,15.00
2023-07-05T06:31:34.449Z,14.90
2023-07-05T06:34:07.818Z,14.90
2023-07-05T06:36:38.817Z,14.80
2023-07-05T06:39:05.871Z,14.80
2023-07-05T06:41:35.108Z,14.80
2023-07-05T06:44:05.381Z,14.70
2023-07-05T06:46:38.869Z,14.80
2023-07-05T06:49:06.245Z,14.80
2023-07-05T06:51:36.599Z,14.80
2023-07-05T06:54:06.023Z,14.90
2023-07-05T06:56:36.197Z,15.00
2023-07-05T06:59:03.426Z,15.00
2023-07-05T07:01:31.591Z,15.10
2023-07-05T07:04:06.512Z,15.20
2023-07-05T07:06:36.652Z,15.20
2023-07-05T07:09:07.185Z,15.20
2023-07-05T07:11:36.200Z,15.30
2023-07-05T07:14:05.290Z,15.40
2023-07-05T07:16:33.329Z,15.40
2023-07-05T07:19:00.892Z,15.50
2023-07-05T07:21:31.664Z,15.60
2023-07-05T07:24:00.770Z,15.70
2023-07-05T07:26:31.026Z,15.80
2023-07-05T07:28:58.509Z,16.00
2023-07-05T07:31:33.589Z,16.20
2023-07-05T07:34:02.482Z,16.30
2023-07-05T07:36:34.471Z,16.40
2023-07-05T07:39:05.169Z,16.70
2023-07-05T07:41:36.596Z,16.80
2023-07-05T07:44:10.253Z,16.90
2023-07-05T07:46:41.316Z,17.10
2023-07-05T07:49:10.327Z,17.20
2023-07-05T07:51:41.101Z,17.30
2023-07-05T07:54:16.915Z,17.30
2023-07-05T07:56:47.742Z,17.40
2023-07-05T07:59:17.474Z,17.50
2023-07-05T08:01:47.367Z,17.60
2023-07-05T08:04:15.543Z,17.80
2023-07-05T08:06:45.736Z,17.90
2023-07-05T08:09:27.272Z,18.10
2023-07-05T08:11:57.710Z,18.10
2023-07-05T08:14:25.090Z,18.10
2023-07-05T08:16:53.178Z,18.20
2023-07-05T08:19:22.296Z,18.30
2023-07-05T08:21:51.680Z,18.40
2023-07-05T08:26:54.589Z,18.40
2023-07-05T08:29:21.908Z,18.50
2023-07-05T08:31:52.605Z,18.60
2023-07-05T08:34:20.094Z,18.90
2023-07-05T08:36:48.096Z,19.10
2023-07-05T08:39:17.385Z,19.20
2023-07-05T08:42:01.829Z,19.20
2023-07-05T08:44:59.011Z,19.40
2023-07-05T08:47:43.561Z,19.50
2023-07-05T08:50:26.851Z,19.80
2023-07-05T08:53:17.166Z,19.80
2023-07-05T08:56:07.137Z,20.10
2023-07-05T08:59:02.370Z,20.30
2023-07-05T09:01:37.932Z,20.40
2023-07-05T09:04:14.073Z,20.40
2023-07-05T09:07:08.447Z,20.50
2023-07-05T09:09:51.891Z,20.50
2023-07-05T09:12:50.809Z,20.70
2023-07-05T09:15:43.042Z,20.60
2023-07-05T09:18:47.656Z,21.00
2023-07-05T09:21:29.293Z,21.20
2023-07-05T09:24:12.833Z,21.20
2023-07-05T09:26:57.118Z,21.40
2023-07-05T09:29:34.316Z,21.40
2023-07-05T09:32:20.512Z,21.30
2023-07-05T09:34:52.183Z,21.40
2023-07-05T09:37:33.193Z,21.40
2023-07-05T09:40:12.285Z,21.50
2023-07-05T09:42:50.248Z,21.60
2023-07-05T09:45:27.954Z,21.80
2023-07-05T09:48:04.026Z,21.70
2023-07-05T09:50:32.348Z,21.60
2023-07-05T09:53:28.683Z,21.70
2023-07-05T09:56:10.841Z,21.90
2023-07-05T09:58:39.883Z,22.00
2023-07-05T10:01:24.769Z,22.40
2023-07-05T10:03:59.107Z,22.50
2023-07-05T10:06:28.405Z,22.40
2023-07-05T10:09:01.834Z,22.30
2023-07-05T10:11:35.576Z,22.20
2023-07-05T10:14:18.310Z,22.20
2023-07-05T10:16:54.772Z,22.20
2023-07-05T10:19:39.409Z,22.30
2023-07-05T10:22:27.269Z,22.40
2023-07-05T10:25:02.535Z,22.40
2023-07-05T10:27:42.364Z,22.50
2023-07-05T10:30:25.817Z,22.70
2023-07-05T10:33:14.379Z,22.80
2023-07-05T10:36:12.310Z,22.90
2023-07-05T10:38:49.645Z,22.90
2023-07-05T10:41:34.413Z,22.90
2023-07-05T10:44:08.983Z,23.10
2023-07-05T10:46:39.778Z,23.30
2023-07-05T10:49:15.421Z,23.30
2023-07-05T10:51:49.542Z,23.40
2023-07-05T10:54:21.814Z,23.40
2023-07-05T10:56:50.465Z,23.40
2023-07-05T10:59:39.991Z,23.40
2023-07-05T11:02:24.580Z,23.40
2023-07-05T11:04:54.543Z,23.40
2023-07-05T11:07:23.893Z,23.50
2023-07-05T11:09:50.968Z,23.40
2023-07-05T11:12:30.856Z,23.50
2023-07-05T11:15:05.608Z,23.70
2023-07-05T11:17:39.627Z,24.00
2023-07-05T11:20:32.554Z,24.00
2023-07-05T11:22:59.717Z,24.00
2023-07-05T11:26:04.193Z,23.80
2023-07-05T11:28:44.438Z,23.60
2023-07-05T11:31:32.712Z,23.70
2023-07-05T11:34:26.542Z,23.70
2023-07-05T11:37:03.060Z,23.60
2023-07-05T11:39:51.931Z,23.50
2023-07-05T11:42:26.586Z,23.70
2023-07-05T11:45:08.776Z,23.70
2023-07-05T11:47:40.142Z,23.80
2023-07-05T11:50:09.605Z,23.80
2023-07-05T11:52:40.228Z,23.90
2023-07-05T11:55:21.434Z,23.90
2023-07-05T11:58:13.018Z,23.90
2023-07-05T12:00:48.987Z,23.90
2023-07-05T12:03:39.220Z,24.00
2023-07-05T12:06:21.723Z,24.10
2023-07-05T12:08:56.945Z,24.10
2023-07-05T12:12:00.194Z,24.10
2023-07-05T12:14:27.503Z,24.30
2023-07-05T12:17:02.636Z,24.20
2023-07-05T12:19:31.645Z,24.10
2023-07-05T12:22:04.066Z,24.00
2023-07-05T12:24:51.790Z,24.00
2023-07-05T12:27:30.334Z,24.00
2023-07-05T12:29:59.979Z,23.80
2023-07-05T12:32:30.725Z,23.90
2023-07-05T12:35:15.750Z,24.00
2023-07-05T12:37:46.641Z,24.00
2023-07-05T12:40:14.119Z,24.00
2023-07-05T12:42:53.873Z,23.90
2023-07-05T12:45:35.779Z,23.90
2023-07-05T12:48:22.428Z,24.10
2023-07-05T12:50:49.376Z,24.20
2023-07-05T12:53:23.536Z,24.20
2023-07-05T12:56:04.786Z,24.20
2023-07-05T12:58:35.370Z,24.10
2023-07-05T13:01:06.005Z,24.20
2023-07-05T13:03:33.670Z,24.20
2023-07-05T13:06:03.402Z,24.30
2023-07-05T13:08:30.878Z,24.10
2023-07-05T13:10:59.993Z,24.10
2023-07-05T13:13:36.597Z,24.20
2023-07-05T13:16:48.112Z,24.20
2023-07-05T13:19:22.711Z,24.10
2023-07-05T13:21:52.748Z,23.70
2023-07-05T13:24:28.924Z,23.50
2023-07-05T13:27:13.981Z,23.50
2023-07-05T13:29:43.755Z,23.40
2023-07-05T13:32:30.332Z,23.30
2023-07-05T13:35:00.779Z,23.30
2023-07-05T13:37:30.730Z,23.40
2023-07-05T13:40:08.086Z,23.50
2023-07-05T13:42:35.506Z,23.50
2023-07-05T13:45:13.078Z,23.70
2023-07-05T13:47:42.001Z,23.90
2023-07-05T13:50:09.858Z,23.80
2023-07-05T13:52:41.370Z,23.60
2023-07-05T13:55:19.696Z,23.60
2023-07-05T13:57:59.840Z,23.70
2023-07-05T14:00:32.089Z,23.70
2023-07-05T14:03:01.237Z,23.70
2023-07-05T14:05:30.995Z,23.50
2023-07-05T14:08:03.849Z,23.70
2023-07-05T14:10:32.316Z,23.70
2023-07-05T14:13:00.061Z,23.70
2023-07-05T14:15:40.902Z,23.60
2023-07-05T14:18:16.504Z,23.50
2023-07-05T14:20:46.473Z,23.40
2023-07-05T14:23:15.915Z,23.20
2023-07-05T14:25:48.157Z,23.20
2023-07-05T14:28:17.914Z,23.10
2023-07-05T14:30:46.990Z,22.90
2023-07-05T14:33:20.694Z,23.00
2023-07-05T14:35:57.765Z,23.00
2023-07-05T14:38:28.228Z,23.10
2023-07-05T14:40:58.362Z,23.10
2023-07-05T14:43:25.417Z,23.00
2023-07-05T14:45:55.588Z,23.10
2023-07-05T14:48:24.758Z,23.10
2023-07-05T14:50:53.069Z,23.10
2023-07-05T14:53:29.046Z,23.10
2023-07-05T14:56:00.926Z,22.90
2023-07-05T14:58:29.727Z,22.90
2023-07-05T15:00:58.649Z,22.70
2023-07-05T15:03:41.029Z,22.60
2023-07-05T15:06:11.079Z,22.60
2023-07-05T15:08:41.181Z,22.60
2023-07-05T15:11:13.722Z,22.60
2023-07-05T15:13:47.021Z,22.30
2023-07-05T15:16:21.646Z,22.00
2023-07-05T15:18:51.904Z,21.80
2023-07-05T15:21:23.746Z,21.60
2023-07-05T15:23:55.348Z,21.40
2023-07-05T15:26:25.468Z,21.40
2023-07-05T15:28:55.578Z,21.20
2023-07-05T15:31:25.207Z,21.20
2023-07-05T15:33:53.367Z,21.20
2023-07-05T15:36:23.657Z,21.30
2023-07-05T15:38:53.757Z,21.50
2023-07-05T15:41:21.690Z,21.50
2023-07-05T15:43:48.800Z,21.20
2023-07-05T15:46:16.280Z,21.00
2023-07-05T15:48:44.844Z,20.70
2023-07-05T15:51:13.116Z,20.40
2023-07-05T15:53:40.402Z,20.30
2023-07-05T15:56:07.522Z,20.10
2023-07-05T15:58:44.013Z,19.90
2023-07-05T16:01:15.726Z,19.70
2023-07-05T16:03:42.892Z,19.60
2023-07-05T16:06:11.233Z,19.40
2023-07-05T16:08:38.271Z,19.30
2023-07-05T16:11:13.462Z,19.20
2023-07-05T16:13:46.685Z,19.10
2023-07-05T16:16:13.833Z,19.00
2023-07-05T16:18:43.735Z,18.90
2023-07-05T16:21:11.004Z,18.90
2023-07-05T16:23:39.770Z,18.90
2023-07-05T16:26:09.867Z,18.90
2023-07-05T16:28:40.137Z,19.10
2023-07-05T16:31:10.592Z,19.10
2023-07-05T16:33:37.728Z,19.20
2023-07-05T16:36:15.980Z,19.30
2023-07-05T16:38:46.166Z,19.50
2023-07-05T16:41:14.684Z,19.60
2023-07-05T16:43:45.006Z,19.60
2023-07-05T16:46:12.505Z,19.60
2023-07-05T16:48:39.766Z,19.60
2023-07-05T16:51:07.140Z,19.50
2023-07-05T16:53:35.120Z,19.40
2023-07-05T16:56:03.984Z,19.30
2023-07-05T16:58:30.963Z,19.20
2023-07-05T17:01:06.660Z,19.10
2023-07-05T17:03:40.436Z,19.00
2023-07-05T17:06:09.921Z,19.00
2023-07-05T17:08:39.454Z,18.90
2023-07-05T17:11:09.460Z,18.90
2023-07-05T17:13:38.045Z,18.80
2023-07-05T17:16:09.282Z,18.80
2023-07-05T17:18:38.472Z,18.70
2023-07-05T17:21:09.105Z,18.70
2023-07-05T17:23:39.425Z,18.50
2023-07-05T17:26:14.408Z,18.50
2023-07-05T17:28:45.937Z,18.50
2023-07-05T17:31:21.921Z,18.50
2023-07-05T17:33:50.239Z,18.40
2023-07-05T17:36:21.805Z,18.30
2023-07-05T17:38:49.961Z,18.30
2023-07-05T17:41:18.060Z,18.40
2023-07-05T17:43:48.214Z,18.40
2023-07-05T17:46:30.993Z,18.40
2023-07-05T17:49:03.637Z,18.40
2023-07-05T17:51:35.221Z,18.40
2023-07-05T17:54:03.339Z,18.30
2023-07-05T17:56:30.804Z,18.30
2023-07-05T17:59:01.022Z,18.30
2023-07-05T18:01:31.512Z,18.30
2023-07-05T18:03:58.714Z,18.30
2023-07-05T18:06:27.035Z,18.40
2023-07-05T18:08:55.192Z,18.40
2023-07-05T18:11:22.832Z,18.40
2023-07-05T18:13:54.577Z,18.50
2023-07-05T18:16:23.720Z,18.60
2023-07-05T18:18:53.048Z,18.60
2023-07-05T18:21:27.320Z,18.60
2023-07-05T18:23:54.874Z,18.60
2023-07-05T18:26:24.736Z,18.60
2023-07-05T18:28:53.521Z,18.50
2023-07-05T18:31:24.222Z,18.50
2023-07-05T18:33:52.085Z,18.40
2023-07-05T18:36:22.607Z,18.30
2023-07-05T18:38:53.671Z,18.30
2023-07-05T18:41:23.915Z,18.20
2023-07-05T18:43:50.970Z,18.20
2023-07-05T18:46:21.250Z,18.20
2023-07-05T18:48:51.853Z,18.20
2023-07-05T18:51:20.021Z,18.10
2023-07-05T18:53:47.249Z,18.10
2023-07-05T18:56:19.102Z,18.00
2023-07-05T18:58:47.830Z,18.00
2023-07-05T19:01:20.038Z,18.00
2023-07-05T19:03:50.825Z,18.00
2023-07-05T19:06:21.233Z,18.00
2023-07-05T19:08:49.453Z,17.90
2023-07-05T19:11:31.253Z,17.90
2023-07-05T19:13:59.659Z,17.90
2023-07-05T19:16:30.039Z,17.90
2023-07-05T19:18:59.446Z,18.00
2023-07-05T19:21:30.514Z,17.90
2023-07-05T19:24:17.681Z,17.90
2023-07-05T19:26:45.534Z,17.90
2023-07-05T19:29:14.057Z,17.90
2023-07-05T19:31:44.236Z,17.90
2023-07-05T19:34:12.257Z,17.90
2023-07-05T19:36:40.225Z,17.90
2023-07-05T19:39:10.344Z,18.00
2023-07-05T19:41:37.652Z,17.90
2023-07-05T19:44:08.687Z,17.90
2023-07-05T19:46:37.122Z,17.80
2023-07-05T19:49:04.730Z,17.80
2023-07-05T19:51:32.165Z,17.80
2023-07-05T19:53:59.623Z,17.70
2023-07-05T19:56:31.985Z,17.70
2023-07-05T19:59:02.500Z,17.60
2023-07-05T20:01:30.068Z,17.60
2023-07-05T20:03:59.308Z,17.50
2023-07-05T20:06:26.890Z,17.40
2023-07-05T20:08:58.655Z,17.40
2023-07-05T20:11:28.728Z,17.30
2023-07-05T20:13:59.314Z,17.30
2023-07-05T20:16:29.457Z,17.30
2023-07-05T20:18:58.781Z,17.30
2023-07-05T20:21:30.070Z,17.20
2023-07-05T20:24:00.088Z,17.20
2023-07-05T20:26:30.145Z,17.10
2023-07-05T20:29:00.369Z,17.10
2023-07-05T20:31:28.517Z,17.10
2023-07-05T20:33:57.874Z,17.10
2023-07-05T20:36:28.616Z,17.10
2023-07-05T20:38:55.972Z,17.10
2023-07-05T20:41:27.576Z,17.10
2023-07-05T20:43:54.629Z,17.00
2023-07-05T20:46:22.846Z,17.00
2023-07-05T20:48:50.922Z,17.00
2023-07-05T20:51:19.943Z,16.90
2023-07-05T20:53:47.264Z,16.90
2023-07-05T20:56:18.714Z,16.90
2023-07-05T20:58:48.175Z,16.90
2023-07-05T21:01:21.261Z,16.80
2023-07-05T21:03:53.704Z,16.80
2023-07-05T21:06:24.341Z,16.80
2023-07-05T21:08:54.510Z,16.80
2023-07-05T21:11:24.835Z,16.80
2023-07-05T21:13:53.969Z,16.70
2023-07-05T21:16:22.608Z,16.70
2023-07-05T21:18:51.999Z,16.70
2023-07-05T21:21:22.275Z,16.60
2023-07-05T21:23:50.541Z,16.60
2023-07-05T21:26:20.745Z,16.60
2023-07-05T21:28:50.854Z,16.60
2023-07-05T21:31:20.920Z,16.60
2023-07-05T21:33:48.281Z,16.60
2023-07-05T21:36:15.393Z,16.50
2023-07-05T21:38:43.830Z,16.60
2023-07-05T21:41:14.950Z,16.50
2023-07-05T21:43:42.294Z,16.50
2023-07-05T21:46:09.502Z,16.40
2023-07-05T21:48:39.118Z,16.40
2023-07-05T21:51:10.973Z,16.40
2023-07-05T21:53:41.090Z,16.30
2023-07-05T21:56:09.168Z,16.30
2023-07-05T21:58:38.261Z,16.30
2023-07-05T22:01:08.032Z,16.30
2023-07-05T22:03:36.873Z,16.30
2023-07-05T22:06:05.524Z,16.20
2023-07-05T22:08:33.706Z,16.20
2023-07-05T22:11:03.827Z,16.20
2023-07-05T22:13:32.953Z,16.20
2023-07-05T22:16:02.912Z,16.20
2023-07-05T22:18:34.805Z,16.20
2023-07-05T22:21:03.016Z,16.20
2023-07-05T22:23:37.078Z,16.20
2023-07-05T22:26:05.207Z,16.20
2023-07-05T22:28:32.796Z,16.20
2023-07-05T22:31:02.921Z,16.20
2023-07-05T22:33:33.029Z,16.20
2023-07-05T22:36:04.163Z,16.20
2023-07-05T22:38:32.843Z,16.20
2023-07-05T22:41:02.855Z,16.10
2023-07-05T22:43:32.467Z,16.10
2023-07-05T22:46:04.420Z,16.00
2023-07-05T22:48:35.305Z,16.10
2023-07-05T22:51:05.138Z,16.00
2023-07-05T22:53:35.299Z,16.00
2023-07-05T22:56:04.197Z,15.90
2023-07-05T22:58:34.396Z,15.90
2023-07-05T23:01:06.912Z,15.90
2023-07-05T23:03:38.715Z,15.80
2023-07-05T23:06:11.757Z,15.80
2023-07-05T23:08:39.669Z,15.70
2023-07-05T23:11:13.018Z,15.70
2023-07-05T23:13:45.385Z,15.60
2023-07-05T23:16:15.925Z,15.60
2023-07-05T23:18:49.095Z,15.60
2023-07-05T23:21:18.495Z,15.60
2023-07-05T23:23:51.217Z,15.60
2023-07-05T23:26:20.014Z,15.50
2023-07-05T23:28:54.774Z,15.50
2023-07-05T23:31:34.102Z,15.50
2023-07-05T23:34:01.321Z,15.40
2023-07-05T23:36:31.924Z,15.40
2023-07-05T23:39:02.149Z,15.40
2023-07-05T23:41:32.503Z,15.30
2023-07-05T23:44:12.533Z,15.40
2023-07-05T23:46:42.727Z,15.40
2023-07-05T23:49:12.820Z,15.30
2023-07-05T23:51:43.678Z,15.30
2023-07-05T23:54:13.717Z,15.30
2023-07-05T23:56:47.832Z,15.30
2023-07-05T23:59:20.629Z,15.20
